sensor_id;sensor_type;location;lat;lon;timestamp;pressure;altitude;pressure_sealevel;temperature;humidity
46379;BME280;32084;42.254;22.744;2022-07-17T00:00:21;95572.81;;;19.34;76.86
46379;BME280;32084;42.254;22.744;2022-07-17T00:02:47;95565.25;;;19.16;77.16
46379;BME280;32084;42.254;22.744;2022-07-17T00:05:14;95573.16;;;19.10;77.99
46379;BME280;32084;42.254;22.744;2022-07-17T00:07:40;95576.94;;;19.23;78.10
46379;BME280;32084;42.254;22.744;2022-07-17T00:10:06;95580.31;;;19.31;77.32
46379;BME280;32084;42.254;22.744;2022-07-17T00:12:32;95579.91;;;19.48;76.90
46379;BME280;32084;42.254;22.744;2022-07-17T00:14:58;95576.56;;;19.46;76.77
46379;BME280;32084;42.254;22.744;2022-07-17T00:17:25;95570.53;;;19.37;76.52
46379;BME280;32084;42.254;22.744;2022-07-17T00:19:50;95574.06;;;19.38;76.94
46379;BME280;32084;42.254;22.744;2022-07-17T00:22:16;95573.44;;;19.56;75.98
46379;BME280;32084;42.254;22.744;2022-07-17T00:24:42;95570.53;;;19.57;76.48
46379;BME280;32084;42.254;22.744;2022-07-17T00:27:08;95580.72;;;19.22;77.39
46379;BME280;32084;42.254;22.744;2022-07-17T00:29:34;95579.81;;;19.08;78.27
46379;BME280;32084;42.254;22.744;2022-07-17T00:32:01;95576.47;;;19.06;78.51
46379;BME280;32084;42.254;22.744;2022-07-17T00:34:27;95577.06;;;18.95;78.62
46379;BME280;32084;42.254;22.744;2022-07-17T00:36:53;95581.69;;;19.14;78.17
46379;BME280;32084;42.254;22.744;2022-07-17T00:39:19;95587.78;;;19.23;77.82
46379;BME280;32084;42.254;22.744;2022-07-17T00:41:45;95587.19;;;19.34;77.58
46379;BME280;32084;42.254;22.744;2022-07-17T00:44:11;95603.25;;;19.42;77.72
46379;BME280;32084;42.254;22.744;2022-07-17T00:46:38;95608.88;;;19.27;78.04
46379;BME280;32084;42.254;22.744;2022-07-17T00:49:04;95609.84;;;19.13;78.42
46379;BME280;32084;42.254;22.744;2022-07-17T00:51:31;95601.50;;;19.08;78.80
46379;BME280;32084;42.254;22.744;2022-07-17T00:53:57;95604.09;;;19.29;77.92
46379;BME280;32084;42.254;22.744;2022-07-17T00:56:24;95600.34;;;19.37;77.55
46379;BME280;32084;42.254;22.744;2022-07-17T00:58:50;95600.16;;;19.45;77.16
46379;BME280;32084;42.254;22.744;2022-07-17T01:01:17;95600.38;;;19.50;77.47
46379;BME280;32084;42.254;22.744;2022-07-17T01:03:43;95605.38;;;19.47;77.86
46379;BME280;32084;42.254;22.744;2022-07-17T01:06:09;95606.16;;;19.27;77.31
46379;BME280;32084;42.254;22.744;2022-07-17T01:08:35;95607.28;;;18.98;79.11
46379;BME280;32084;42.254;22.744;2022-07-17T01:11:02;95620.97;;;18.83;79.30
46379;BME280;32084;42.254;22.744;2022-07-17T01:13:28;95603.34;;;19.01;78.69
46379;BME280;32084;42.254;22.744;2022-07-17T01:15:55;95599.06;;;19.26;77.58
46379;BME280;32084;42.254;22.744;2022-07-17T01:18:22;95602.81;;;19.39;77.34
46379;BME280;32084;42.254;22.744;2022-07-17T01:20:48;95609.28;;;19.24;78.12
46379;BME280;32084;42.254;22.744;2022-07-17T01:23:16;95617.34;;;19.11;78.48
46379;BME280;32084;42.254;22.744;2022-07-17T01:25:42;95608.59;;;19.09;78.97
46379;BME280;32084;42.254;22.744;2022-07-17T01:28:08;95614.56;;;18.91;78.78
46379;BME280;32084;42.254;22.744;2022-07-17T01:30:34;95626.16;;;18.78;79.45
46379;BME280;32084;42.254;22.744;2022-07-17T01:33:00;95616.47;;;18.62;79.85
46379;BME280;32084;42.254;22.744;2022-07-17T01:35:27;95628.63;;;18.73;79.65
46379;BME280;32084;42.254;22.744;2022-07-17T01:37:53;95617.16;;;18.71;79.71
46379;BME280;32084;42.254;22.744;2022-07-17T01:40:19;95619.44;;;18.74;79.30
46379;BME280;32084;42.254;22.744;2022-07-17T01:42:47;95616.00;;;18.80;79.28
46379;BME280;32084;42.254;22.744;2022-07-17T01:45:14;95613.81;;;18.69;79.13
46379;BME280;32084;42.254;22.744;2022-07-17T01:47:40;95620.31;;;18.75;78.84
46379;BME280;32084;42.254;22.744;2022-07-17T01:50:06;95610.88;;;18.64;78.82
46379;BME280;32084;42.254;22.744;2022-07-17T01:52:34;95606.38;;;18.43;79.78
46379;BME280;32084;42.254;22.744;2022-07-17T01:55:01;95600.56;;;18.46;79.46
46379;BME280;32084;42.254;22.744;2022-07-17T01:57:27;95606.91;;;18.66;78.78
46379;BME280;32084;42.254;22.744;2022-07-17T01:59:53;95607.75;;;18.67;79.13
46379;BME280;32084;42.254;22.744;2022-07-17T02:02:19;95616.19;;;18.50;79.96
46379;BME280;32084;42.254;22.744;2022-07-17T02:04:45;95610.22;;;18.27;80.16
46379;BME280;32084;42.254;22.744;2022-07-17T02:07:11;95616.94;;;18.09;81.14
46379;BME280;32084;42.254;22.744;2022-07-17T02:09:37;95629.06;;;18.13;80.98
46379;BME280;32084;42.254;22.744;2022-07-17T02:12:03;95625.78;;;18.18;80.86
46379;BME280;32084;42.254;22.744;2022-07-17T02:14:29;95624.50;;;18.42;79.57
46379;BME280;32084;42.254;22.744;2022-07-17T02:16:56;95620.09;;;18.41;79.48
46379;BME280;32084;42.254;22.744;2022-07-17T02:19:22;95622.56;;;18.36;79.52
46379;BME280;32084;42.254;22.744;2022-07-17T02:21:48;95621.53;;;18.37;79.21
46379;BME280;32084;42.254;22.744;2022-07-17T02:24:14;95637.72;;;18.30;80.02
46379;BME280;32084;42.254;22.744;2022-07-17T02:26:40;95637.84;;;18.16;79.92
46379;BME280;32084;42.254;22.744;2022-07-17T02:29:06;95636.94;;;18.08;80.13
46379;BME280;32084;42.254;22.744;2022-07-17T02:31:32;95632.09;;;18.04;80.59
46379;BME280;32084;42.254;22.744;2022-07-17T02:33:58;95631.09;;;17.83;81.91
46379;BME280;32084;42.254;22.744;2022-07-17T02:36:24;95642.09;;;17.82;82.22
46379;BME280;32084;42.254;22.744;2022-07-17T02:38:50;95633.34;;;18.01;81.05
46379;BME280;32084;42.254;22.744;2022-07-17T02:41:16;95634.63;;;18.05;81.09
46379;BME280;32084;42.254;22.744;2022-07-17T02:43:42;95630.56;;;18.16;80.33
46379;BME280;32084;42.254;22.744;2022-07-17T02:46:08;95634.69;;;18.12;80.45
46379;BME280;32084;42.254;22.744;2022-07-17T02:48:35;95634.88;;;17.89;81.31
46379;BME280;32084;42.254;22.744;2022-07-17T02:51:01;95630.16;;;17.91;81.34
46379;BME280;32084;42.254;22.744;2022-07-17T02:53:26;95640.41;;;17.81;82.00
46379;BME280;32084;42.254;22.744;2022-07-17T02:55:53;95628.94;;;17.79;81.78
46379;BME280;32084;42.254;22.744;2022-07-17T02:58:19;95638.31;;;17.98;81.26
46379;BME280;32084;42.254;22.744;2022-07-17T03:00:45;95642.34;;;18.08;81.42
46379;BME280;32084;42.254;22.744;2022-07-17T03:03:10;95645.97;;;17.94;81.22
46379;BME280;32084;42.254;22.744;2022-07-17T03:05:37;95653.06;;;17.95;81.90
46379;BME280;32084;42.254;22.744;2022-07-17T03:08:03;95658.06;;;17.98;81.60
46379;BME280;32084;42.254;22.744;2022-07-17T03:10:29;95647.69;;;18.02;81.56
46379;BME280;32084;42.254;22.744;2022-07-17T03:12:55;95646.72;;;18.09;81.52
46379;BME280;32084;42.254;22.744;2022-07-17T03:15:21;95653.72;;;17.97;80.57
46379;BME280;32084;42.254;22.744;2022-07-17T03:17:47;95655.09;;;17.50;82.12
46379;BME280;32084;42.254;22.744;2022-07-17T03:20:13;95660.91;;;17.68;82.14
46379;BME280;32084;42.254;22.744;2022-07-17T03:22:39;95659.75;;;17.78;81.41
46379;BME280;32084;42.254;22.744;2022-07-17T03:25:05;95661.19;;;17.95;81.19
46379;BME280;32084;42.254;22.744;2022-07-17T03:27:31;95649.72;;;17.93;81.18
46379;BME280;32084;42.254;22.744;2022-07-17T03:29:57;95646.69;;;18.03;81.17
46379;BME280;32084;42.254;22.744;2022-07-17T03:32:23;95656.00;;;17.79;81.72
46379;BME280;32084;42.254;22.744;2022-07-17T03:34:49;95656.38;;;17.75;82.07
46379;BME280;32084;42.254;22.744;2022-07-17T03:37:15;95657.06;;;17.99;80.95
46379;BME280;32084;42.254;22.744;2022-07-17T03:39:41;95669.50;;;17.93;81.44
46379;BME280;32084;42.254;22.744;2022-07-17T03:42:07;95670.13;;;17.95;81.74
46379;BME280;32084;42.254;22.744;2022-07-17T03:44:33;95661.97;;;18.17;81.43
46379;BME280;32084;42.254;22.744;2022-07-17T03:47:00;95670.50;;;18.14;82.17
46379;BME280;32084;42.254;22.744;2022-07-17T03:49:26;95669.66;;;18.13;81.23
46379;BME280;32084;42.254;22.744;2022-07-17T03:51:52;95673.13;;;18.07;81.20
46379;BME280;32084;42.254;22.744;2022-07-17T03:54:18;95670.84;;;18.04;82.17
46379;BME280;32084;42.254;22.744;2022-07-17T03:56:44;95677.47;;;18.02;81.80
46379;BME280;32084;42.254;22.744;2022-07-17T03:59:10;95687.75;;;18.13;81.65
46379;BME280;32084;42.254;22.744;2022-07-17T04:01:36;95680.28;;;18.15;81.57
46379;BME280;32084;42.254;22.744;2022-07-17T04:04:02;95690.81;;;18.03;82.45
46379;BME280;32084;42.254;22.744;2022-07-17T04:06:28;95690.09;;;17.94;82.96
46379;BME280;32084;42.254;22.744;2022-07-17T04:08:54;95687.84;;;17.98;83.28
46379;BME280;32084;42.254;22.744;2022-07-17T04:11:20;95693.56;;;18.10;82.76
46379;BME280;32084;42.254;22.744;2022-07-17T04:13:46;95699.84;;;18.39;81.46
46379;BME280;32084;42.254;22.744;2022-07-17T04:16:13;95706.88;;;18.61;81.37
46379;BME280;32084;42.254;22.744;2022-07-17T04:18:39;95698.72;;;18.83;80.96
46379;BME280;32084;42.254;22.744;2022-07-17T04:21:06;95704.72;;;19.13;80.01
46379;BME280;32084;42.254;22.744;2022-07-17T04:23:33;95702.31;;;19.31;80.31
46379;BME280;32084;42.254;22.744;2022-07-17T04:25:59;95705.22;;;19.30;80.33
46379;BME280;32084;42.254;22.744;2022-07-17T04:28:25;95706.09;;;19.37;80.60
46379;BME280;32084;42.254;22.744;2022-07-17T04:30:51;95708.03;;;19.57;80.82
46379;BME280;32084;42.254;22.744;2022-07-17T04:33:17;95708.75;;;19.85;78.84
46379;BME280;32084;42.254;22.744;2022-07-17T04:35:43;95714.03;;;20.14;77.41
46379;BME280;32084;42.254;22.744;2022-07-17T04:38:10;95699.22;;;20.36;76.54
46379;BME280;32084;42.254;22.744;2022-07-17T04:40:36;95707.78;;;20.60;74.87
46379;BME280;32084;42.254;22.744;2022-07-17T04:43:02;95707.56;;;20.55;75.89
46379;BME280;32084;42.254;22.744;2022-07-17T04:45:29;95714.66;;;20.42;78.63
46379;BME280;32084;42.254;22.744;2022-07-17T04:47:55;95720.94;;;20.36;78.72
46379;BME280;32084;42.254;22.744;2022-07-17T04:50:21;95718.22;;;20.43;78.65
46379;BME280;32084;42.254;22.744;2022-07-17T04:52:47;95730.78;;;20.77;74.87
46379;BME280;32084;42.254;22.744;2022-07-17T04:55:14;95728.19;;;21.16;72.58
46379;BME280;32084;42.254;22.744;2022-07-17T04:57:40;95727.91;;;21.37;71.76
46379;BME280;32084;42.254;22.744;2022-07-17T05:00:07;95734.81;;;21.53;71.52
46379;BME280;32084;42.254;22.744;2022-07-17T05:02:34;95734.28;;;21.70;71.20
46379;BME280;32084;42.254;22.744;2022-07-17T05:05:00;95732.53;;;21.89;70.54
46379;BME280;32084;42.254;22.744;2022-07-17T05:07:26;95723.47;;;21.95;69.99
46379;BME280;32084;42.254;22.744;2022-07-17T05:09:52;95722.13;;;22.11;69.16
46379;BME280;32084;42.254;22.744;2022-07-17T05:12:18;95725.59;;;22.31;68.41
46379;BME280;32084;42.254;22.744;2022-07-17T05:14:44;95731.28;;;22.55;67.66
46379;BME280;32084;42.254;22.744;2022-07-17T05:17:11;95727.66;;;22.61;66.55
46379;BME280;32084;42.254;22.744;2022-07-17T05:19:37;95732.97;;;22.74;65.81
46379;BME280;32084;42.254;22.744;2022-07-17T05:22:03;95739.91;;;22.77;65.62
46379;BME280;32084;42.254;22.744;2022-07-17T05:24:30;95738.56;;;22.61;66.62
46379;BME280;32084;42.254;22.744;2022-07-17T05:26:56;95745.19;;;22.47;69.70
46379;BME280;32084;42.254;22.744;2022-07-17T05:29:22;95751.34;;;22.35;70.02
46379;BME280;32084;42.254;22.744;2022-07-17T05:31:48;95742.97;;;22.30;67.80
46379;BME280;32084;42.254;22.744;2022-07-17T05:34:14;95746.38;;;22.26;69.04
46379;BME280;32084;42.254;22.744;2022-07-17T05:36:40;95749.16;;;22.12;71.61
46379;BME280;32084;42.254;22.744;2022-07-17T05:39:06;95743.44;;;22.20;70.67
46379;BME280;32084;42.254;22.744;2022-07-17T05:41:34;95738.78;;;22.85;67.47
46379;BME280;32084;42.254;22.744;2022-07-17T05:44:00;95749.47;;;22.86;68.36
46379;BME280;32084;42.254;22.744;2022-07-17T05:46:26;95751.34;;;22.86;67.81
46379;BME280;32084;42.254;22.744;2022-07-17T05:48:52;95754.75;;;22.81;67.03
46379;BME280;32084;42.254;22.744;2022-07-17T05:51:18;95746.22;;;23.21;64.19
46379;BME280;32084;42.254;22.744;2022-07-17T05:53:44;95749.63;;;23.35;62.97
46379;BME280;32084;42.254;22.744;2022-07-17T05:56:10;95750.53;;;23.29;61.02
46379;BME280;32084;42.254;22.744;2022-07-17T05:58:36;95753.56;;;23.21;60.98
46379;BME280;32084;42.254;22.744;2022-07-17T06:01:02;95750.31;;;23.30;61.25
46379;BME280;32084;42.254;22.744;2022-07-17T06:03:28;95756.00;;;23.29;60.99
46379;BME280;32084;42.254;22.744;2022-07-17T06:05:55;95760.06;;;23.19;62.03
46379;BME280;32084;42.254;22.744;2022-07-17T06:08:22;95757.56;;;23.18;62.10
46379;BME280;32084;42.254;22.744;2022-07-17T06:10:48;95765.31;;;23.21;62.80
46379;BME280;32084;42.254;22.744;2022-07-17T06:13:14;95757.91;;;23.28;63.93
46379;BME280;32084;42.254;22.744;2022-07-17T06:15:40;95758.19;;;23.38;64.13
46379;BME280;32084;42.254;22.744;2022-07-17T06:18:06;95771.41;;;23.60;62.89
46379;BME280;32084;42.254;22.744;2022-07-17T06:20:32;95775.25;;;24.08;61.07
46379;BME280;32084;42.254;22.744;2022-07-17T06:22:58;95770.44;;;24.52;59.29
46379;BME280;32084;42.254;22.744;2022-07-17T06:25:24;95760.25;;;24.94;58.63
46379;BME280;32084;42.254;22.744;2022-07-17T06:27:50;95756.97;;;25.28;56.13
46379;BME280;32084;42.254;22.744;2022-07-17T06:30:16;95755.13;;;25.57;55.52
46379;BME280;32084;42.254;22.744;2022-07-17T06:32:43;95755.81;;;25.76;54.76
46379;BME280;32084;42.254;22.744;2022-07-17T06:35:09;95753.25;;;25.58;54.57
46379;BME280;32084;42.254;22.744;2022-07-17T06:37:36;95752.44;;;25.45;55.37
46379;BME280;32084;42.254;22.744;2022-07-17T06:40:02;95753.28;;;25.34;56.33
46379;BME280;32084;42.254;22.744;2022-07-17T06:42:29;95754.22;;;25.16;56.10
46379;BME280;32084;42.254;22.744;2022-07-17T06:44:55;95751.97;;;25.25;56.66
46379;BME280;32084;42.254;22.744;2022-07-17T06:47:21;95753.03;;;25.36;54.81
46379;BME280;32084;42.254;22.744;2022-07-17T06:49:47;95758.56;;;25.76;53.78
46379;BME280;32084;42.254;22.744;2022-07-17T06:52:13;95755.56;;;26.01;52.28
46379;BME280;32084;42.254;22.744;2022-07-17T06:54:39;95758.38;;;26.06;53.29
46379;BME280;32084;42.254;22.744;2022-07-17T06:57:05;95764.81;;;26.41;52.69
46379;BME280;32084;42.254;22.744;2022-07-17T06:59:31;95767.53;;;26.58;48.93
46379;BME280;32084;42.254;22.744;2022-07-17T07:01:57;95769.88;;;26.49;49.75
46379;BME280;32084;42.254;22.744;2022-07-17T07:04:23;95775.31;;;26.32;47.69
46379;BME280;32084;42.254;22.744;2022-07-17T07:06:49;95780.00;;;26.20;48.58
46379;BME280;32084;42.254;22.744;2022-07-17T07:09:15;95774.91;;;26.40;49.25
46379;BME280;32084;42.254;22.744;2022-07-17T07:11:41;95773.59;;;26.72;48.80
46379;BME280;32084;42.254;22.744;2022-07-17T07:14:07;95775.69;;;26.81;47.45
46379;BME280;32084;42.254;22.744;2022-07-17T07:16:33;95770.41;;;26.63;49.31
46379;BME280;32084;42.254;22.744;2022-07-17T07:19:00;95784.16;;;26.51;49.58
46379;BME280;32084;42.254;22.744;2022-07-17T07:21:26;95785.47;;;26.20;49.03
46379;BME280;32084;42.254;22.744;2022-07-17T07:23:53;95792.25;;;25.88;49.78
46379;BME280;32084;42.254;22.744;2022-07-17T07:26:19;95782.25;;;25.82;50.25
46379;BME280;32084;42.254;22.744;2022-07-17T07:28:45;95790.09;;;25.90;49.00
46379;BME280;32084;42.254;22.744;2022-07-17T07:31:10;95788.84;;;26.22;47.68
46379;BME280;32084;42.254;22.744;2022-07-17T07:33:37;95789.06;;;26.49;47.97
46379;BME280;32084;42.254;22.744;2022-07-17T07:36:03;95791.41;;;26.57;47.51
46379;BME280;32084;42.254;22.744;2022-07-17T07:38:30;95795.03;;;26.46;46.51
46379;BME280;32084;42.254;22.744;2022-07-17T07:40:56;95794.97;;;26.58;46.79
46379;BME280;32084;42.254;22.744;2022-07-17T07:43:22;95801.09;;;26.77;47.17
46379;BME280;32084;42.254;22.744;2022-07-17T07:45:48;95807.44;;;26.94;45.76
46379;BME280;32084;42.254;22.744;2022-07-17T07:48:14;95810.34;;;27.04;45.28
46379;BME280;32084;42.254;22.744;2022-07-17T07:50:40;95806.53;;;27.22;43.50
46379;BME280;32084;42.254;22.744;2022-07-17T07:53:06;95808.03;;;27.13;44.28
46379;BME280;32084;42.254;22.744;2022-07-17T07:55:32;95807.84;;;26.86;44.81
46379;BME280;32084;42.254;22.744;2022-07-17T07:58:16;95808.38;;;27.17;44.97
46379;BME280;32084;42.254;22.744;2022-07-17T08:00:43;95807.84;;;27.20;45.01
46379;BME280;32084;42.254;22.744;2022-07-17T08:03:09;95805.03;;;26.98;44.02
46379;BME280;32084;42.254;22.744;2022-07-17T08:05:35;95801.03;;;26.72;46.05
46379;BME280;32084;42.254;22.744;2022-07-17T08:08:01;95797.19;;;26.44;45.44
46379;BME280;32084;42.254;22.744;2022-07-17T08:10:28;95808.97;;;26.27;44.78
46379;BME280;32084;42.254;22.744;2022-07-17T08:12:54;95807.22;;;26.38;45.35
46379;BME280;32084;42.254;22.744;2022-07-17T08:15:20;95806.25;;;27.07;44.95
46379;BME280;32084;42.254;22.744;2022-07-17T08:17:47;95800.66;;;27.70;44.79
46379;BME280;32084;42.254;22.744;2022-07-17T08:20:13;95807.94;;;28.20;43.47
46379;BME280;32084;42.254;22.744;2022-07-17T08:22:40;95802.84;;;28.34;41.80
46379;BME280;32084;42.254;22.744;2022-07-17T08:25:06;95808.22;;;28.46;42.00
46379;BME280;32084;42.254;22.744;2022-07-17T08:27:36;95811.38;;;28.54;41.02
46379;BME280;32084;42.254;22.744;2022-07-17T08:30:03;95808.28;;;28.51;41.08
46379;BME280;32084;42.254;22.744;2022-07-17T08:32:29;95810.66;;;28.42;39.88
46379;BME280;32084;42.254;22.744;2022-07-17T08:34:55;95801.25;;;28.38;41.33
46379;BME280;32084;42.254;22.744;2022-07-17T08:37:21;95807.91;;;28.42;41.22
46379;BME280;32084;42.254;22.744;2022-07-17T08:39:47;95808.81;;;28.48;40.50
46379;BME280;32084;42.254;22.744;2022-07-17T08:42:13;95818.91;;;28.64;41.67
46379;BME280;32084;42.254;22.744;2022-07-17T08:44:42;95806.91;;;28.75;41.28
46379;BME280;32084;42.254;22.744;2022-07-17T08:47:08;95810.22;;;28.77;39.61
46379;BME280;32084;42.254;22.744;2022-07-17T08:49:36;95801.78;;;28.84;40.20
46379;BME280;32084;42.254;22.744;2022-07-17T08:52:04;95801.66;;;28.74;38.55
46379;BME280;32084;42.254;22.744;2022-07-17T08:54:30;95804.94;;;28.71;38.75
46379;BME280;32084;42.254;22.744;2022-07-17T08:56:56;95799.19;;;28.72;39.61
46379;BME280;32084;42.254;22.744;2022-07-17T08:59:22;95803.38;;;28.80;40.03
46379;BME280;32084;42.254;22.744;2022-07-17T09:01:48;95794.34;;;28.85;40.54
46379;BME280;32084;42.254;22.744;2022-07-17T09:04:16;95797.97;;;28.90;40.06
46379;BME280;32084;42.254;22.744;2022-07-17T09:06:42;95795.03;;;29.02;40.36
46379;BME280;32084;42.254;22.744;2022-07-17T09:09:09;95793.16;;;29.08;39.71
46379;BME280;32084;42.254;22.744;2022-07-17T09:11:49;95790.34;;;29.02;38.71
46379;BME280;32084;42.254;22.744;2022-07-17T09:14:16;95795.22;;;28.90;39.33
46379;BME280;32084;42.254;22.744;2022-07-17T09:16:56;95785.38;;;28.99;39.40
46379;BME280;32084;42.254;22.744;2022-07-17T09:19:30;95791.75;;;29.05;38.28
46379;BME280;32084;42.254;22.744;2022-07-17T09:24:53;95790.97;;;29.10;39.40
46379;BME280;32084;42.254;22.744;2022-07-17T09:32:18;95781.75;;;28.94;38.08
46379;BME280;32084;42.254;22.744;2022-07-17T09:34:45;95785.69;;;29.03;38.16
46379;BME280;32084;42.254;22.744;2022-07-17T09:37:11;95787.22;;;29.16;37.28
46379;BME280;32084;42.254;22.744;2022-07-17T09:39:37;95785.78;;;29.13;37.27
46379;BME280;32084;42.254;22.744;2022-07-17T09:42:04;95775.81;;;29.07;35.65
46379;BME280;32084;42.254;22.744;2022-07-17T09:44:30;95775.31;;;29.10;36.95
46379;BME280;32084;42.254;22.744;2022-07-17T09:46:56;95783.91;;;29.19;37.50
46379;BME280;32084;42.254;22.744;2022-07-17T09:49:25;95780.66;;;29.27;37.13
46379;BME280;32084;42.254;22.744;2022-07-17T09:51:52;95777.63;;;29.24;35.67
46379;BME280;32084;42.254;22.744;2022-07-17T09:54:20;95778.75;;;29.28;36.99
46379;BME280;32084;42.254;22.744;2022-07-17T09:56:46;95784.56;;;29.31;36.92
46379;BME280;32084;42.254;22.744;2022-07-17T09:59:15;95772.75;;;29.36;36.57
46379;BME280;32084;42.254;22.744;2022-07-17T10:01:42;95766.72;;;29.39;36.83
46379;BME280;32084;42.254;22.744;2022-07-17T10:04:10;95770.84;;;29.42;36.56
46379;BME280;32084;42.254;22.744;2022-07-17T10:06:36;95778.91;;;29.48;37.13
46379;BME280;32084;42.254;22.744;2022-07-17T10:09:02;95770.34;;;29.50;35.92
46379;BME280;32084;42.254;22.744;2022-07-17T10:11:31;95762.09;;;29.50;36.24
46379;BME280;32084;42.254;22.744;2022-07-17T10:14:02;95767.63;;;29.55;37.65
46379;BME280;32084;42.254;22.744;2022-07-17T10:16:31;95769.41;;;29.76;37.06
46379;BME280;32084;42.254;22.744;2022-07-17T10:18:58;95757.88;;;29.80;36.19
46379;BME280;32084;42.254;22.744;2022-07-17T10:21:25;95754.75;;;29.66;35.26
46379;BME280;32084;42.254;22.744;2022-07-17T10:29:02;95754.75;;;29.66;36.07
46379;BME280;32084;42.254;22.744;2022-07-17T10:31:29;95754.41;;;29.57;35.38
46379;BME280;32084;42.254;22.744;2022-07-17T10:34:01;95730.97;;;29.49;35.30
46379;BME280;32084;42.254;22.744;2022-07-17T10:36:39;95744.81;;;29.59;35.65
46379;BME280;32084;42.254;22.744;2022-07-17T10:41:38;95744.81;;;29.65;36.11
46379;BME280;32084;42.254;22.744;2022-07-17T10:44:04;95742.72;;;29.77;36.51
46379;BME280;32084;42.254;22.744;2022-07-17T10:46:30;95739.06;;;29.71;36.53
46379;BME280;32084;42.254;22.744;2022-07-17T10:48:56;95750.13;;;29.76;36.81
46379;BME280;32084;42.254;22.744;2022-07-17T10:51:25;95734.19;;;29.78;36.26
46379;BME280;32084;42.254;22.744;2022-07-17T10:53:55;95724.19;;;29.72;35.66
46379;BME280;32084;42.254;22.744;2022-07-17T10:56:22;95737.75;;;29.79;36.34
46379;BME280;32084;42.254;22.744;2022-07-17T10:58:48;95733.09;;;29.90;36.44
46379;BME280;32084;42.254;22.744;2022-07-17T11:01:18;95737.56;;;29.96;35.39
46379;BME280;32084;42.254;22.744;2022-07-17T11:06:11;95733.91;;;29.85;36.45
46379;BME280;32084;42.254;22.744;2022-07-17T11:08:42;95723.19;;;29.89;35.67
46379;BME280;32084;42.254;22.744;2022-07-17T11:11:08;95725.38;;;29.87;35.85
46379;BME280;32084;42.254;22.744;2022-07-17T11:13:34;95725.38;;;29.87;36.23
46379;BME280;32084;42.254;22.744;2022-07-17T11:16:00;95724.31;;;29.93;36.23
46379;BME280;32084;42.254;22.744;2022-07-17T11:18:26;95717.94;;;29.87;35.18
46379;BME280;32084;42.254;22.744;2022-07-17T11:20:53;95710.50;;;29.83;36.01
46379;BME280;32084;42.254;22.744;2022-07-17T11:23:20;95712.44;;;29.87;35.24
46379;BME280;32084;42.254;22.744;2022-07-17T11:25:57;95719.31;;;29.90;36.55
46379;BME280;32084;42.254;22.744;2022-07-17T11:30:59;95719.09;;;30.07;35.64
46379;BME280;32084;42.254;22.744;2022-07-17T11:33:25;95720.22;;;30.06;35.18
46379;BME280;32084;42.254;22.744;2022-07-17T11:35:51;95711.13;;;30.10;35.17
46379;BME280;32084;42.254;22.744;2022-07-17T11:38:29;95708.38;;;30.15;35.16
46379;BME280;32084;42.254;22.744;2022-07-17T11:40:56;95708.94;;;30.17;35.72
46379;BME280;32084;42.254;22.744;2022-07-17T11:43:22;95706.78;;;30.30;35.07
46379;BME280;32084;42.254;22.744;2022-07-17T11:45:48;95715.88;;;30.30;34.85
46379;BME280;32084;42.254;22.744;2022-07-17T11:48:14;95704.75;;;29.94;35.74
46379;BME280;32084;42.254;22.744;2022-07-17T11:50:40;95702.09;;;29.62;35.33
46379;BME280;32084;42.254;22.744;2022-07-17T11:53:06;95709.44;;;29.46;36.19
46379;BME280;32084;42.254;22.744;2022-07-17T11:58:55;95706.78;;;29.67;35.75
46379;BME280;32084;42.254;22.744;2022-07-17T12:01:21;95702.13;;;29.72;35.53
46379;BME280;32084;42.254;22.744;2022-07-17T12:03:59;95698.69;;;29.92;36.03
46379;BME280;32084;42.254;22.744;2022-07-17T12:06:26;95703.69;;;30.06;35.25
46379;BME280;32084;42.254;22.744;2022-07-17T12:08:55;95694.28;;;30.07;36.31
46379;BME280;32084;42.254;22.744;2022-07-17T12:11:21;95698.44;;;30.09;35.55
46379;BME280;32084;42.254;22.744;2022-07-17T12:13:47;95698.44;;;30.09;35.35
46379;BME280;32084;42.254;22.744;2022-07-17T12:18:54;95691.00;;;30.00;36.00
46379;BME280;32084;42.254;22.744;2022-07-17T12:21:21;95686.53;;;29.88;35.65
46379;BME280;32084;42.254;22.744;2022-07-17T12:23:55;95692.63;;;30.01;35.65
46379;BME280;32084;42.254;22.744;2022-07-17T12:26:21;95679.44;;;30.13;36.07
46379;BME280;32084;42.254;22.744;2022-07-17T12:28:47;95683.25;;;30.07;35.64
46379;BME280;32084;42.254;22.744;2022-07-17T12:31:13;95689.34;;;30.14;35.60
46379;BME280;32084;42.254;22.744;2022-07-17T12:33:42;95686.84;;;30.02;35.22
46379;BME280;32084;42.254;22.744;2022-07-17T12:36:09;95682.44;;;30.06;35.37
46379;BME280;32084;42.254;22.744;2022-07-17T12:38:35;95673.63;;;30.14;35.30
46379;BME280;32084;42.254;22.744;2022-07-17T12:41:01;95677.78;;;30.17;35.66
46379;BME280;32084;42.254;22.744;2022-07-17T12:43:27;95674.75;;;30.13;35.67
46379;BME280;32084;42.254;22.744;2022-07-17T12:45:53;95678.50;;;29.82;36.02
46379;BME280;32084;42.254;22.744;2022-07-17T12:48:20;95668.72;;;29.48;35.85
46379;BME280;32084;42.254;22.744;2022-07-17T12:50:46;95675.00;;;29.44;35.80
46379;BME280;32084;42.254;22.744;2022-07-17T12:53:12;95670.13;;;29.56;36.02
46379;BME280;32084;42.254;22.744;2022-07-17T12:55:38;95664.09;;;29.64;35.68
46379;BME280;32084;42.254;22.744;2022-07-17T12:58:05;95661.38;;;29.74;36.13
46379;BME280;32084;42.254;22.744;2022-07-17T13:00:31;95663.91;;;29.81;35.53
46379;BME280;32084;42.254;22.744;2022-07-17T13:02:57;95661.69;;;29.78;35.32
46379;BME280;32084;42.254;22.744;2022-07-17T13:05:24;95657.00;;;29.84;36.22
46379;BME280;32084;42.254;22.744;2022-07-17T13:07:50;95650.13;;;29.81;36.14
46379;BME280;32084;42.254;22.744;2022-07-17T13:10:16;95657.84;;;29.89;36.06
46379;BME280;32084;42.254;22.744;2022-07-17T13:12:42;95659.53;;;29.90;35.62